sensor_id;sensor_type;location;lat;lon;timestamp;pressure;altitude;pressure_sealevel;temperature;humidity
41306;BME280;27051;50.376;19.152;2023-04-09T00:00:38;98791.13;;;7.53;65.48
41306;BME280;27051;50.376;19.152;2023-04-09T00:03:24;98789.08;;;7.52;65.45
41306;BME280;27051;50.376;19.152;2023-04-09T00:05:58;98781.73;;;7.45;65.61
41306;BME280;27051;50.376;19.152;2023-04-09T00:08:25;98778.45;;;7.49;65.63
41306;BME280;27051;50.376;19.152;2023-04-09T00:10:56;98780.31;;;7.44;65.46
41306;BME280;27051;50.376;19.152;2023-04-09T00:13:23;98776.28;;;7.50;65.75
41306;BME280;27051;50.376;19.152;2023-04-09T00:15:49;98778.88;;;7.65;65.64
41306;BME280;27051;50.376;19.152;2023-04-09T00:18:16;98774.46;;;7.67;65.38
41306;BME280;27051;50.376;19.152;2023-04-09T00:20:43;98773.59;;;7.58;65.44
41306;BME280;27051;50.376;19.152;2023-04-09T00:23:09;98777.55;;;7.60;65.56
41306;BME280;27051;50.376;19.152;2023-04-09T00:25:35;98778.55;;;7.58;65.40
41306;BME280;27051;50.376;19.152;2023-04-09T00:28:02;98781.61;;;7.55;65.57
41306;BME280;27051;50.376;19.152;2023-04-09T00:30:29;98783.35;;;7.55;65.58
41306;BME280;27051;50.376;19.152;2023-04-09T00:32:56;98785.04;;;7.48;65.71
41306;BME280;27051;50.376;19.152;2023-04-09T00:35:23;98791.84;;;7.45;65.54
41306;BME280;27051;50.376;19.152;2023-04-09T00:37:55;98795.37;;;7.46;65.78
41306;BME280;27051;50.376;19.152;2023-04-09T00:40:22;98800.16;;;7.54;65.71
41306;BME280;27051;50.376;19.152;2023-04-09T00:42:48;98800.73;;;7.57;65.80
41306;BME280;27051;50.376;19.152;2023-04-09T00:45:15;98802.61;;;7.59;65.77
41306;BME280;27051;50.376;19.152;2023-04-09T00:47:41;98806.30;;;7.62;65.58
41306;BME280;27051;50.376;19.152;2023-04-09T00:50:08;98808.55;;;7.61;65.70
41306;BME280;27051;50.376;19.152;2023-04-09T00:52:34;98803.71;;;7.60;65.66
41306;BME280;27051;50.376;19.152;2023-04-09T00:55:03;98798.69;;;7.58;65.60
41306;BME280;27051;50.376;19.152;2023-04-09T00:57:30;98800.29;;;7.50;65.62
41306;BME280;27051;50.376;19.152;2023-04-09T00:59:57;98799.54;;;7.41;65.56
41306;BME280;27051;50.376;19.152;2023-04-09T01:02:23;98798.98;;;7.36;65.70
41306;BME280;27051;50.376;19.152;2023-04-09T01:04:50;98795.25;;;7.30;65.77
41306;BME280;27051;50.376;19.152;2023-04-09T01:08:11;98798.08;;;7.39;65.99
41306;BME280;27051;50.376;19.152;2023-04-09T01:10:34;98796.39;;;7.48;65.96
41306;BME280;27051;50.376;19.152;2023-04-09T01:13:29;98796.74;;;7.51;65.81
41306;BME280;27051;50.376;19.152;2023-04-09T01:15:59;98791.84;;;7.52;65.91
41306;BME280;27051;50.376;19.152;2023-04-09T01:18:34;98783.49;;;7.52;65.72
41306;BME280;27051;50.376;19.152;2023-04-09T01:21:10;98789.84;;;7.44;65.54
41306;BME280;27051;50.376;19.152;2023-04-09T01:23:58;98792.90;;;7.33;65.59
41306;BME280;27051;50.376;19.152;2023-04-09T01:29:17;98792.15;;;7.20;65.82
41306;BME280;27051;50.376;19.152;2023-04-09T01:31:45;98794.05;;;7.13;65.87
41306;BME280;27051;50.376;19.152;2023-04-09T01:34:14;98796.55;;;7.05;65.80
41306;BME280;27051;50.376;19.152;2023-04-09T01:36:47;98802.70;;;7.09;65.85
41306;BME280;27051;50.376;19.152;2023-04-09T01:39:15;98800.90;;;7.06;65.77
41306;BME280;27051;50.376;19.152;2023-04-09T01:41:42;98803.70;;;7.05;65.90
41306;BME280;27051;50.376;19.152;2023-04-09T01:44:10;98804.02;;;7.05;65.96
41306;BME280;27051;50.376;19.152;2023-04-09T01:46:38;98803.31;;;7.11;66.28
41306;BME280;27051;50.376;19.152;2023-04-09T01:49:05;98799.63;;;7.15;66.11
41306;BME280;27051;50.376;19.152;2023-04-09T01:51:33;98802.35;;;7.16;66.11
41306;BME280;27051;50.376;19.152;2023-04-09T01:53:59;98800.89;;;7.12;65.96
41306;BME280;27051;50.376;19.152;2023-04-09T01:56:26;98797.31;;;7.01;66.02
41306;BME280;27051;50.376;19.152;2023-04-09T01:58:52;98796.42;;;7.00;66.12
41306;BME280;27051;50.376;19.152;2023-04-09T02:01:26;98798.86;;;6.95;66.00
41306;BME280;27051;50.376;19.152;2023-04-09T02:04:01;98800.53;;;7.01;65.97
41306;BME280;27051;50.376;19.152;2023-04-09T02:06:46;98798.54;;;6.99;66.05
41306;BME280;27051;50.376;19.152;2023-04-09T02:09:15;98795.14;;;7.00;66.24
41306;BME280;27051;50.376;19.152;2023-04-09T02:11:45;98797.41;;;6.96;66.10
41306;BME280;27051;50.376;19.152;2023-04-09T02:14:13;98801.48;;;7.00;66.17
41306;BME280;27051;50.376;19.152;2023-04-09T02:16:41;98804.98;;;6.97;66.04
41306;BME280;27051;50.376;19.152;2023-04-09T02:19:07;98806.58;;;6.97;66.15
41306;BME280;27051;50.376;19.152;2023-04-09T02:21:34;98805.26;;;6.91;66.26
41306;BME280;27051;50.376;19.152;2023-04-09T02:24:00;98802.61;;;6.89;66.48
41306;BME280;27051;50.376;19.152;2023-04-09T02:26:27;98803.17;;;6.96;66.53
41306;BME280;27051;50.376;19.152;2023-04-09T02:28:53;98800.46;;;7.04;66.41
41306;BME280;27051;50.376;19.152;2023-04-09T02:31:20;98797.27;;;7.06;66.41
41306;BME280;27051;50.376;19.152;2023-04-09T02:33:46;98800.98;;;7.09;66.38
41306;BME280;27051;50.376;19.152;2023-04-09T02:36:12;98800.13;;;7.10;66.31
41306;BME280;27051;50.376;19.152;2023-04-09T02:38:40;98800.09;;;7.09;66.32
41306;BME280;27051;50.376;19.152;2023-04-09T02:41:07;98800.92;;;7.09;66.42
41306;BME280;27051;50.376;19.152;2023-04-09T02:43:33;98796.33;;;7.13;66.57
41306;BME280;27051;50.376;19.152;2023-04-09T02:46:00;98792.70;;;7.12;66.45
41306;BME280;27051;50.376;19.152;2023-04-09T02:48:26;98794.55;;;7.10;66.31
41306;BME280;27051;50.376;19.152;2023-04-09T02:50:53;98793.33;;;7.13;66.51
41306;BME280;27051;50.376;19.152;2023-04-09T02:53:19;98794.20;;;7.12;66.31
41306;BME280;27051;50.376;19.152;2023-04-09T02:55:46;98796.38;;;7.10;66.29
41306;BME280;27051;50.376;19.152;2023-04-09T02:58:12;98799.23;;;7.12;66.35
41306;BME280;27051;50.376;19.152;2023-04-09T03:00:39;98800.08;;;7.12;66.42
41306;BME280;27051;50.376;19.152;2023-04-09T03:03:05;98802.18;;;7.11;66.27
41306;BME280;27051;50.376;19.152;2023-04-09T03:05:32;98802.30;;;7.04;66.26
41306;BME280;27051;50.376;19.152;2023-04-09T03:07:58;98801.10;;;6.96;66.24
41306;BME280;27051;50.376;19.152;2023-04-09T03:10:24;98798.34;;;6.92;66.28
41306;BME280;27051;50.376;19.152;2023-04-09T03:12:51;98790.42;;;6.89;66.47
41306;BME280;27051;50.376;19.152;2023-04-09T03:15:17;98790.48;;;6.92;66.51
41306;BME280;27051;50.376;19.152;2023-04-09T03:17:44;98789.05;;;6.96;66.54
41306;BME280;27051;50.376;19.152;2023-04-09T03:20:10;98792.25;;;7.05;66.53
41306;BME280;27051;50.376;19.152;2023-04-09T03:22:37;98790.58;;;7.06;66.18
41306;BME280;27051;50.376;19.152;2023-04-09T03:25:04;98790.20;;;7.03;66.27
41306;BME280;27051;50.376;19.152;2023-04-09T03:27:31;98794.19;;;7.05;66.25
41306;BME280;27051;50.376;19.152;2023-04-09T03:29:58;98789.56;;;7.03;66.28
41306;BME280;27051;50.376;19.152;2023-04-09T03:32:24;98790.31;;;6.98;66.36
41306;BME280;27051;50.376;19.152;2023-04-09T03:34:50;98789.16;;;7.00;66.35
41306;BME280;27051;50.376;19.152;2023-04-09T03:37:17;98782.16;;;6.96;66.34
41306;BME280;27051;50.376;19.152;2023-04-09T03:39:43;98781.13;;;6.95;66.36
41306;BME280;27051;50.376;19.152;2023-04-09T03:42:10;98780.53;;;6.97;66.44
41306;BME280;27051;50.376;19.152;2023-04-09T03:44:36;98783.06;;;7.05;66.32
41306;BME280;27051;50.376;19.152;2023-04-09T03:47:03;98792.58;;;7.08;66.36
41306;BME280;27051;50.376;19.152;2023-04-09T03:49:29;98798.64;;;7.07;66.25
41306;BME280;27051;50.376;19.152;2023-04-09T03:51:55;98798.23;;;7.02;66.30
41306;BME280;27051;50.376;19.152;2023-04-09T03:54:22;98800.13;;;6.99;66.27
41306;BME280;27051;50.376;19.152;2023-04-09T03:56:48;98798.97;;;6.95;66.46
41306;BME280;27051;50.376;19.152;2023-04-09T03:59:15;98800.34;;;6.96;66.66
41306;BME280;27051;50.376;19.152;2023-04-09T04:01:42;98798.38;;;6.93;66.62
41306;BME280;27051;50.376;19.152;2023-04-09T04:04:10;98796.44;;;6.93;66.72
41306;BME280;27051;50.376;19.152;2023-04-09T04:06:37;98795.88;;;6.95;66.65
41306;BME280;27051;50.376;19.152;2023-04-09T04:09:03;98798.36;;;7.02;66.52
41306;BME280;27051;50.376;19.152;2023-04-09T04:11:30;98800.52;;;7.01;66.61
41306;BME280;27051;50.376;19.152;2023-04-09T04:13:56;98798.41;;;7.04;66.60
41306;BME280;27051;50.376;19.152;2023-04-09T04:16:22;98804.88;;;7.02;66.61
41306;BME280;27051;50.376;19.152;2023-04-09T04:18:49;98804.98;;;7.03;66.59
41306;BME280;27051;50.376;19.152;2023-04-09T04:21:15;98805.64;;;7.01;66.63
41306;BME280;27051;50.376;19.152;2023-04-09T04:23:42;98804.77;;;7.04;66.58
41306;BME280;27051;50.376;19.152;2023-04-09T04:26:09;98807.17;;;7.08;66.57
41306;BME280;27051;50.376;19.152;2023-04-09T04:28:36;98804.58;;;7.01;66.66
41306;BME280;27051;50.376;19.152;2023-04-09T04:31:09;98797.45;;;6.99;66.58
41306;BME280;27051;50.376;19.152;2023-04-09T04:33:38;98796.83;;;7.02;66.73
41306;BME280;27051;50.376;19.152;2023-04-09T04:36:09;98792.83;;;7.08;66.61
41306;BME280;27051;50.376;19.152;2023-04-09T04:38:37;98784.81;;;7.11;66.67
41306;BME280;27051;50.376;19.152;2023-04-09T04:41:04;98789.11;;;7.20;66.73
41306;BME280;27051;50.376;19.152;2023-04-09T04:43:30;98788.34;;;7.24;66.55
41306;BME280;27051;50.376;19.152;2023-04-09T04:45:57;98791.86;;;7.24;66.42
41306;BME280;27051;50.376;19.152;2023-04-09T04:48:24;98797.65;;;7.24;66.34
41306;BME280;27051;50.376;19.152;2023-04-09T04:50:55;98805.27;;;7.20;66.41
41306;BME280;27051;50.376;19.152;2023-04-09T04:53:21;98807.66;;;7.12;66.56
41306;BME280;27051;50.376;19.152;2023-04-09T04:55:48;98810.95;;;7.11;66.68
41306;BME280;27051;50.376;19.152;2023-04-09T04:58:15;98816.95;;;7.13;66.75
41306;BME280;27051;50.376;19.152;2023-04-09T05:00:41;98818.76;;;7.22;66.79
41306;BME280;27051;50.376;19.152;2023-04-09T05:03:08;98812.84;;;7.16;66.53
41306;BME280;27051;50.376;19.152;2023-04-09T05:05:44;98813.58;;;7.10;66.61
41306;BME280;27051;50.376;19.152;2023-04-09T05:08:11;98809.33;;;7.12;66.75
41306;BME280;27051;50.376;19.152;2023-04-09T05:10:41;98813.73;;;7.16;66.66
41306;BME280;27051;50.376;19.152;2023-04-09T05:13:07;98815.15;;;7.18;66.67
41306;BME280;27051;50.376;19.152;2023-04-09T05:15:39;98819.19;;;7.16;66.52
41306;BME280;27051;50.376;19.152;2023-04-09T05:18:07;98823.39;;;7.09;66.56
41306;BME280;27051;50.376;19.152;2023-04-09T05:20:33;98822.80;;;7.02;66.47
41306;BME280;27051;50.376;19.152;2023-04-09T05:23:00;98824.70;;;7.00;66.73
41306;BME280;27051;50.376;19.152;2023-04-09T05:25:27;98826.23;;;7.06;66.60
41306;BME280;27051;50.376;19.152;2023-04-09T05:27:53;98828.30;;;7.10;66.78
41306;BME280;27051;50.376;19.152;2023-04-09T05:30:25;98832.47;;;7.15;66.87
41306;BME280;27051;50.376;19.152;2023-04-09T05:32:54;98828.62;;;7.21;66.82
41306;BME280;27051;50.376;19.152;2023-04-09T05:35:24;98830.63;;;7.25;66.68
41306;BME280;27051;50.376;19.152;2023-04-09T05:37:50;98833.02;;;7.25;66.75
41306;BME280;27051;50.376;19.152;2023-04-09T05:40:17;98832.90;;;7.26;66.88
41306;BME280;27051;50.376;19.152;2023-04-09T05:42:43;98831.81;;;7.21;66.81
41306;BME280;27051;50.376;19.152;2023-04-09T05:45:10;98834.85;;;7.25;67.08
41306;BME280;27051;50.376;19.152;2023-04-09T05:47:36;98833.80;;;7.31;66.92
41306;BME280;27051;50.376;19.152;2023-04-09T05:50:04;98834.60;;;7.45;66.94
41306;BME280;27051;50.376;19.152;2023-04-09T05:52:30;98835.98;;;7.52;66.97
41306;BME280;27051;50.376;19.152;2023-04-09T05:54:57;98835.55;;;7.58;66.81
41306;BME280;27051;50.376;19.152;2023-04-09T05:57:23;98840.19;;;7.64;66.81
41306;BME280;27051;50.376;19.152;2023-04-09T05:59:49;98840.89;;;7.65;66.79
41306;BME280;27051;50.376;19.152;2023-04-09T06:02:16;98839.80;;;7.66;66.90
41306;BME280;27051;50.376;19.152;2023-04-09T06:04:42;98840.10;;;7.68;66.83
41306;BME280;27051;50.376;19.152;2023-04-09T06:07:08;98834.04;;;7.61;66.93
41306;BME280;27051;50.376;19.152;2023-04-09T06:09:35;98834.19;;;7.61;66.82
41306;BME280;27051;50.376;19.152;2023-04-09T06:12:02;98836.95;;;7.65;66.80
41306;BME280;27051;50.376;19.152;2023-04-09T06:14:32;98840.65;;;7.76;66.89
41306;BME280;27051;50.376;19.152;2023-04-09T06:16:59;98840.29;;;7.83;66.76
41306;BME280;27051;50.376;19.152;2023-04-09T06:19:25;98845.24;;;7.90;66.80
41306;BME280;27051;50.376;19.152;2023-04-09T06:21:52;98846.42;;;7.92;66.84
41306;BME280;27051;50.376;19.152;2023-04-09T06:24:18;98853.23;;;7.96;66.88
41306;BME280;27051;50.376;19.152;2023-04-09T06:26:45;98851.89;;;7.98;66.93
41306;BME280;27051;50.376;19.152;2023-04-09T06:29:12;98848.11;;;8.04;66.93
41306;BME280;27051;50.376;19.152;2023-04-09T06:31:45;98850.80;;;7.99;66.84
41306;BME280;27051;50.376;19.152;2023-04-09T06:34:11;98852.31;;;8.00;66.92
41306;BME280;27051;50.376;19.152;2023-04-09T06:36:38;98852.08;;;8.06;66.97
41306;BME280;27051;50.376;19.152;2023-04-09T06:39:04;98856.72;;;8.21;66.91
41306;BME280;27051;50.376;19.152;2023-04-09T06:41:31;98862.02;;;8.32;66.90
41306;BME280;27051;50.376;19.152;2023-04-09T06:43:58;98864.56;;;8.38;66.73
41306;BME280;27051;50.376;19.152;2023-04-09T06:46:25;98864.30;;;8.43;66.71
41306;BME280;27051;50.376;19.152;2023-04-09T06:48:52;98860.32;;;8.41;66.64
41306;BME280;27051;50.376;19.152;2023-04-09T06:51:19;98856.64;;;8.49;66.79
41306;BME280;27051;50.376;19.152;2023-04-09T06:53:45;98854.80;;;8.58;66.79
41306;BME280;27051;50.376;19.152;2023-04-09T06:56:11;98859.27;;;8.62;66.74
41306;BME280;27051;50.376;19.152;2023-04-09T06:58:38;98863.38;;;8.69;66.75
41306;BME280;27051;50.376;19.152;2023-04-09T07:01:04;98870.23;;;8.71;66.58
41306;BME280;27051;50.376;19.152;2023-04-09T07:03:31;98874.64;;;8.81;66.68
41306;BME280;27051;50.376;19.152;2023-04-09T07:05:57;98873.05;;;8.93;66.74
41306;BME280;27051;50.376;19.152;2023-04-09T07:08:24;98871.95;;;8.96;66.49
41306;BME280;27051;50.376;19.152;2023-04-09T07:10:50;98872.71;;;9.02;66.52
41306;BME280;27051;50.376;19.152;2023-04-09T07:13:17;98873.88;;;9.10;66.48
41306;BME280;27051;50.376;19.152;2023-04-09T07:15:44;98871.64;;;9.21;66.52
41306;BME280;27051;50.376;19.152;2023-04-09T07:18:11;98875.09;;;9.21;66.14
41306;BME280;27051;50.376;19.152;2023-04-09T07:20:37;98872.77;;;9.19;66.24
41306;BME280;27051;50.376;19.152;2023-04-09T07:23:04;98870.80;;;9.24;66.20
41306;BME280;27051;50.376;19.152;2023-04-09T07:25:31;98876.36;;;9.35;66.20
41306;BME280;27051;50.376;19.152;2023-04-09T07:27:57;98881.14;;;9.49;66.29
41306;BME280;27051;50.376;19.152;2023-04-09T07:30:25;98877.74;;;9.58;66.38
41306;BME280;27051;50.376;19.152;2023-04-09T07:32:51;98881.52;;;9.65;66.01
41306;BME280;27051;50.376;19.152;2023-04-09T07:35:18;98884.27;;;9.70;66.15
41306;BME280;27051;50.376;19.152;2023-04-09T07:37:45;98886.88;;;9.78;66.17
41306;BME280;27051;50.376;19.152;2023-04-09T07:40:11;98886.11;;;9.80;66.05
41306;BME280;27051;50.376;19.152;2023-04-09T07:42:38;98888.05;;;9.86;66.12
41306;BME280;27051;50.376;19.152;2023-04-09T07:45:05;98880.29;;;9.96;65.93
41306;BME280;27051;50.376;19.152;2023-04-09T07:47:32;98883.41;;;10.01;65.82
41306;BME280;27051;50.376;19.152;2023-04-09T07:49:58;98878.02;;;10.05;65.98
41306;BME280;27051;50.376;19.152;2023-04-09T07:52:25;98875.14;;;10.04;65.77
41306;BME280;27051;50.376;19.152;2023-04-09T07:54:51;98874.20;;;10.10;65.81
41306;BME280;27051;50.376;19.152;2023-04-09T07:57:18;98880.02;;;10.25;65.85
41306;BME280;27051;50.376;19.152;2023-04-09T07:59:44;98877.80;;;10.35;65.72
41306;BME280;27051;50.376;19.152;2023-04-09T08:02:11;98879.30;;;10.47;65.62
41306;BME280;27051;50.376;19.152;2023-04-09T08:04:37;98883.89;;;10.51;65.38
41306;BME280;27051;50.376;19.152;2023-04-09T08:07:04;98882.07;;;10.46;65.17
41306;BME280;27051;50.376;19.152;2023-04-09T08:09:30;98881.98;;;10.37;65.26
41306;BME280;27051;50.376;19.152;2023-04-09T08:11:57;98882.06;;;10.38;65.30
41306;BME280;27051;50.376;19.152;2023-04-09T08:14:23;98888.77;;;10.40;65.23
41306;BME280;27051;50.376;19.152;2023-04-09T08:16:50;98892.37;;;10.43;65.32
41306;BME280;27051;50.376;19.152;2023-04-09T08:19:17;98893.64;;;10.41;65.37
41306;BME280;27051;50.376;19.152;2023-04-09T08:21:43;98895.19;;;10.39;64.96
41306;BME280;27051;50.376;19.152;2023-04-09T08:24:10;98902.08;;;10.44;65.14
41306;BME280;27051;50.376;19.152;2023-04-09T08:26:38;98904.42;;;10.59;65.11
41306;BME280;27051;50.376;19.152;2023-04-09T08:29:05;98899.73;;;10.68;65.00
41306;BME280;27051;50.376;19.152;2023-04-09T08:31:32;98907.08;;;10.80;64.89
41306;BME280;27051;50.376;19.152;2023-04-09T08:33:58;98903.81;;;10.91;64.92
41306;BME280;27051;50.376;19.152;2023-04-09T08:36:25;98906.24;;;11.04;64.87
41306;BME280;27051;50.376;19.152;2023-04-09T08:38:51;98910.78;;;11.11;64.68
41306;BME280;27051;50.376;19.152;2023-04-09T08:41:19;98912.65;;;11.20;64.60
41306;BME280;27051;50.376;19.152;2023-04-09T08:43:46;98911.73;;;11.25;64.25
41306;BME280;27051;50.376;19.152;2023-04-09T08:46:14;98911.99;;;11.31;64.17
41306;BME280;27051;50.376;19.152;2023-04-09T08:48:43;98913.60;;;11.37;63.68
41306;BME280;27051;50.376;19.152;2023-04-09T08:51:13;98912.80;;;11.36;63.66
41306;BME280;27051;50.376;19.152;2023-04-09T08:53:56;98911.38;;;11.42;63.90
41306;BME280;27051;50.376;19.152;2023-04-09T08:56:24;98909.00;;;11.55;63.73
41306;BME280;27051;50.376;19.152;2023-04-09T08:58:51;98904.58;;;11.58;63.69
41306;BME280;27051;50.376;19.152;2023-04-09T09:01:30;98906.30;;;11.63;63.58
41306;BME280;27051;50.376;19.152;2023-04-09T09:03:59;98905.10;;;11.71;63.32
41306;BME280;27051;50.376;19.152;2023-04-09T09:06:27;98907.88;;;11.82;63.14
41306;BME280;27051;50.376;19.152;2023-04-09T09:09:14;98907.38;;;11.92;63.05
41306;BME280;27051;50.376;19.152;2023-04-09T09:11:45;98906.94;;;11.99;63.18
41306;BME280;27051;50.376;19.152;2023-04-09T09:14:17;98907.55;;;12.07;63.05
41306;BME280;27051;50.376;19.152;2023-04-09T09:17:03;98906.08;;;12.13;62.83
41306;BME280;27051;50.376;19.152;2023-04-09T09:19:31;98907.21;;;12.15;62.78
41306;BME280;27051;50.376;19.152;2023-04-09T09:22:02;98908.23;;;12.15;62.61
41306;BME280;27051;50.376;19.152;2023-04-09T09:24:30;98911.29;;;12.08;62.58
41306;BME280;27051;50.376;19.152;2023-04-09T09:26:56;98909.41;;;12.01;62.61
41306;BME280;27051;50.376;19.152;2023-04-09T09:29:23;98909.90;;;11.92;62.76
41306;BME280;27051;50.376;19.152;2023-04-09T09:31:52;98907.23;;;11.90;62.99
41306;BME280;27051;50.376;19.152;2023-04-09T09:34:20;98906.11;;;11.87;62.70
41306;BME280;27051;50.376;19.152;2023-04-09T09:36:48;98903.23;;;11.73;62.85
41306;BME280;27051;50.376;19.152;2023-04-09T09:39:15;98903.60;;;11.70;63.01
41306;BME280;27051;50.376;19.152;2023-04-09T09:41:42;98901.21;;;11.66;63.12
41306;BME280;27051;50.376;19.152;2023-04-09T09:44:10;98903.30;;;11.70;63.00
41306;BME280;27051;50.376;19.152;2023-04-09T09:46:39;98907.62;;;11.69;62.84
41306;BME280;27051;50.376;19.152;2023-04-09T09:49:07;98908.23;;;11.73;63.02
41306;BME280;27051;50.376;19.152;2023-04-09T09:51:38;98908.30;;;11.72;62.75
41306;BME280;27051;50.376;19.152;2023-04-09T09:54:06;98905.38;;;11.79;62.97
41306;BME280;27051;50.376;19.152;2023-04-09T09:56:34;98903.59;;;11.86;62.75
41306;BME280;27051;50.376;19.152;2023-04-09T09:59:17;98906.48;;;11.87;62.23
41306;BME280;27051;50.376;19.152;2023-04-09T10:01:46;98908.42;;;11.87;62.39
41306;BME280;27051;50.376;19.152;2023-04-09T10:04:15;98901.21;;;11.94;62.44
41306;BME280;27051;50.376;19.152;2023-04-09T10:06:42;98904.16;;;11.99;62.03
41306;BME280;27051;50.376;19.152;2023-04-09T10:09:10;98899.39;;;12.01;62.06
41306;BME280;27051;50.376;19.152;2023-04-09T10:11:38;98898.86;;;12.05;62.09
41306;BME280;27051;50.376;19.152;2023-04-09T10:14:05;98894.06;;;12.05;61.97
41306;BME280;27051;50.376;19.152;2023-04-09T10:16:32;98895.79;;;12.08;62.20
41306;BME280;27051;50.376;19.152;2023-04-09T10:19:00;98899.17;;;12.16;61.96
41306;BME280;27051;50.376;19.152;2023-04-09T10:21:57;98891.67;;;12.19;61.57
41306;BME280;27051;50.376;19.152;2023-04-09T10:24:25;98892.14;;;12.24;61.37
41306;BME280;27051;50.376;19.152;2023-04-09T10:27:14;98890.08;;;12.20;61.40
41306;BME280;27051;50.376;19.152;2023-04-09T10:29:48;98886.04;;;12.19;61.24
41306;BME280;27051;50.376;19.152;2023-04-09T10:32:18;98888.71;;;12.27;61.58
41306;BME280;27051;50.376;19.152;2023-04-09T10:34:44;98887.03;;;12.31;61.47
41306;BME280;27051;50.376;19.152;2023-04-09T10:37:19;98886.10;;;12.36;60.94
41306;BME280;27051;50.376;19.152;2023-04-09T10:39:47;98879.77;;;12.31;60.97
41306;BME280;27051;50.376;19.152;2023-04-09T10:42:17;98883.39;;;12.51;61.15
41306;BME280;27051;50.376;19.152;2023-04-09T10:44:44;98879.83;;;12.71;60.77
41306;BME280;27051;50.376;19.152;2023-04-09T10:47:10;98880.27;;;12.79;60.21
41306;BME280;27051;50.376;19.152;2023-04-09T10:49:41;98882.95;;;12.86;60.24
41306;BME280;27051;50.376;19.152;2023-04-09T10:52:11;98878.58;;;12.93;60.15
41306;BME280;27051;50.376;19.152;2023-04-09T10:54:42;98880.23;;;12.92;59.78
41306;BME280;27051;50.376;19.152;2023-04-09T10:57:11;98881.48;;;12.83;59.75
41306;BME280;27051;50.376;19.152;2023-04-09T10:59:42;98881.20;;;12.84;59.68
41306;BME280;27051;50.376;19.152;2023-04-09T11:07:39;98874.46;;;13.21;59.21
41306;BME280;27051;50.376;19.152;2023-04-09T11:10:09;98872.57;;;13.24;59.24
41306;BME280;27051;50.376;19.152;2023-04-09T11:12:35;98872.95;;;13.21;58.99
41306;BME280;27051;50.376;19.152;2023-04-09T11:15:02;98875.57;;;13.28;59.12
41306;BME280;27051;50.376;19.152;2023-04-09T11:17:30;98872.85;;;13.40;59.06
41306;BME280;27051;50.376;19.152;2023-04-09T11:20:02;98877.42;;;13.50;58.85
41306;BME280;27051;50.376;19.152;2023-04-09T11:22:29;98872.43;;;13.57;58.85
41306;BME280;27051;50.376;19.152;2023-04-09T11:24:55;98871.57;;;13.66;58.78
41306;BME280;27051;50.376;19.152;2023-04-09T11:27:21;98871.98;;;13.77;58.31
41306;BME280;27051;50.376;19.152;2023-04-09T11:29:48;98871.36;;;13.88;58.56
41306;BME280;27051;50.376;19.152;2023-04-09T11:32:20;98876.62;;;14.07;58.06
41306;BME280;27051;50.376;19.152;2023-04-09T11:34:46;98876.36;;;14.26;57.33
41306;BME280;27051;50.376;19.152;2023-04-09T11:37:13;98871.05;;;14.38;56.95
41306;BME280;27051;50.376;19.152;2023-04-09T11:39:43;98873.52;;;14.49;56.90
41306;BME280;27051;50.376;19.152;2023-04-09T11:42:16;98870.27;;;14.59;56.41
41306;BME280;27051;50.376;19.152;2023-04-09T11:44:45;98873.20;;;14.72;56.10
41306;BME280;27051;50.376;19.152;2023-04-09T11:47:15;98872.63;;;14.85;55.84
41306;BME280;27051;50.376;19.152;2023-04-09T11:49:44;98874.11;;;15.11;55.69
41306;BME280;27051;50.376;19.152;2023-04-09T11:52:12;98873.55;;;15.92;55.43
41306;BME280;27051;50.376;19.152;2023-04-09T11:54:39;98865.71;;;16.94;54.65
41306;BME280;27051;50.376;19.152;2023-04-09T11:57:05;98859.97;;;18.59;53.73
41306;BME280;27051;50.376;19.152;2023-04-09T11:59:32;98854.85;;;20.83;52.41
41306;BME280;27051;50.376;19.152;2023-04-09T12:01:58;98852.52;;;22.16;51.12
41306;BME280;27051;50.376;19.152;2023-04-09T12:04:25;98859.63;;;22.79;49.90
41306;BME280;27051;50.376;19.152;2023-04-09T12:06:58;98862.31;;;22.64;49.69
41306;BME280;27051;50.376;19.152;2023-04-09T12:09:24;98858.52;;;22.25;48.97
41306;BME280;27051;50.376;19.152;2023-04-09T12:11:50;98863.39;;;21.74;49.36
41306;BME280;27051;50.376;19.152;2023-04-09T12:14:18;98862.58;;;21.36;48.33
41306;BME280;27051;50.376;19.152;2023-04-09T12:16:59;98862.90;;;21.11;48.33
41306;BME280;27051;50.376;19.152;2023-04-09T12:19:25;98863.61;;;21.04;48.18
41306;BME280;27051;50.376;19.152;2023-04-09T12:21:53;98863.98;;;20.87;47.77
41306;BME280;27051;50.376;19.152;2023-04-09T12:24:22;98862.98;;;20.52;47.36
41306;BME280;27051;50.376;19.152;2023-04-09T12:26:49;98858.75;;;20.46;47.68
41306;BME280;27051;50.376;19.152;2023-04-09T12:29:17;98856.55;;;20.70;47.21
41306;BME280;27051;50.376;19.152;2023-04-09T12:31:44;98848.03;;;21.76;46.38
41306;BME280;27051;50.376;19.152;2023-04-09T12:34:12;98842.76;;;24.06;44.91
41306;BME280;27051;50.376;19.152;2023-04-09T12:36:39;98843.54;;;25.53;43.40
41306;BME280;27051;50.376;19.152;2023-04-09T12:39:07;98840.10;;;26.15;41.84
41306;BME280;27051;50.376;19.152;2023-04-09T12:41:33;98835.70;;;27.16;41.61
41306;BME280;27051;50.376;19.152;2023-04-09T12:44:00;98837.62;;;28.23;40.92
41306;BME280;27051;50.376;19.152;2023-04-09T12:46:27;98836.11;;;29.43;39.39
41306;BME280;27051;50.376;19.152;2023-04-09T12:48:53;98837.16;;;29.61;38.61
41306;BME280;27051;50.376;19.152;2023-04-09T12:51:19;98835.08;;;29.31;38.01
41306;BME280;27051;50.376;19.152;2023-04-09T12:53:46;98832.92;;;29.51;37.59
41306;BME280;27051;50.376;19.152;2023-04-09T12:56:12;98824.96;;;30.46;36.58
41306;BME280;27051;50.376;19.152;2023-04-09T12:58:39;98823.80;;;31.47;35.58
41306;BME280;27051;50.376;19.152;2023-04-09T13:01:05;98818.84;;;31.84;34.99
41306;BME280;27051;50.376;19.152;2023-04-09T13:03:32;98816.57;;;31.67;34.43
41306;BME280;27051;50.376;19.152;2023-04-09T13:05:58;98812.64;;;30.92;34.26
41306;BME280;27051;50.376;19.152;2023-04-09T13:08:24;98816.76;;;30.33;33.53